sensor_id;sensor_type;location;lat;lon;timestamp;pressure;altitude;pressure_sealevel;temperature;humidity
16100;BME280;8154;50.830;12.082;2023-06-24T00:02:16;100194.19;;;29.72;38.50
16100;BME280;8154;50.830;12.082;2023-06-24T00:04:45;100200.81;;;29.69;38.71
16100;BME280;8154;50.830;12.082;2023-06-24T00:07:12;100200.81;;;29.69;38.66
16100;BME280;8154;50.830;12.082;2023-06-24T00:09:40;100199.56;;;29.72;38.59
16100;BME280;8154;50.830;12.082;2023-06-24T00:12:09;100188.16;;;29.70;38.39
16100;BME280;8154;50.830;12.082;2023-06-24T00:14:38;100195.19;;;29.71;38.33
16100;BME280;8154;50.830;12.082;2023-06-24T00:17:07;100192.13;;;29.67;38.34
16100;BME280;8154;50.830;12.082;2023-06-24T00:19:35;100190.88;;;29.70;38.30
16100;BME280;8154;50.830;12.082;2023-06-24T00:22:03;100193.56;;;29.70;38.67
16100;BME280;8154;50.830;12.082;2023-06-24T00:24:30;100196.47;;;29.68;38.38
16100;BME280;8154;50.830;12.082;2023-06-24T00:26:57;100201.88;;;29.68;38.69
16100;BME280;8154;50.830;12.082;2023-06-24T00:29:27;100204.56;;;29.68;38.29
16100;BME280;8154;50.830;12.082;2023-06-24T00:31:57;100203.09;;;29.66;38.42
16100;BME280;8154;50.830;12.082;2023-06-24T00:34:27;100213.88;;;29.66;38.41
16100;BME280;8154;50.830;12.082;2023-06-24T00:36:53;100213.88;;;29.66;38.48
16100;BME280;8154;50.830;12.082;2023-06-24T00:39:19;100216.97;;;29.63;38.52
16100;BME280;8154;50.830;12.082;2023-06-24T00:41:48;100211.59;;;29.63;38.74
16100;BME280;8154;50.830;12.082;2023-06-24T00:44:19;100203.50;;;29.63;38.34
16100;BME280;8154;50.830;12.082;2023-06-24T00:46:48;100201.69;;;29.63;38.69
16100;BME280;8154;50.830;12.082;2023-06-24T00:49:19;100199.00;;;29.63;38.47
16100;BME280;8154;50.830;12.082;2023-06-24T00:51:45;100190.25;;;29.61;38.52
16100;BME280;8154;50.830;12.082;2023-06-24T00:54:25;100192.53;;;29.64;38.75
16100;BME280;8154;50.830;12.082;2023-06-24T00:57:06;100198.34;;;29.61;38.30
16100;BME280;8154;50.830;12.082;2023-06-24T00:59:34;100193.38;;;29.58;38.38
16100;BME280;8154;50.830;12.082;2023-06-24T01:02:04;100206.66;;;29.60;38.67
16100;BME280;8154;50.830;12.082;2023-06-24T01:04:34;100200.50;;;29.53;38.54
16100;BME280;8154;50.830;12.082;2023-06-24T01:07:05;100197.97;;;29.58;38.47
16100;BME280;8154;50.830;12.082;2023-06-24T01:09:33;100200.44;;;29.59;38.71
16100;BME280;8154;50.830;12.082;2023-06-24T01:12:04;100195.28;;;29.58;38.38
16100;BME280;8154;50.830;12.082;2023-06-24T01:14:32;100193.38;;;29.58;38.31
16100;BME280;8154;50.830;12.082;2023-06-24T01:17:08;100200.88;;;29.56;38.61
16100;BME280;8154;50.830;12.082;2023-06-24T01:19:54;100194.66;;;29.56;38.82
16100;BME280;8154;50.830;12.082;2023-06-24T01:31:33;100178.72;;;29.54;38.72
16100;BME280;8154;50.830;12.082;2023-06-24T01:34:12;100180.56;;;29.54;38.37
16100;BME280;8154;50.830;12.082;2023-06-24T01:36:47;100161.97;;;29.46;38.52
16100;BME280;8154;50.830;12.082;2023-06-24T01:39:18;100178.94;;;29.53;38.51
16100;BME280;8154;50.830;12.082;2023-06-24T01:41:58;100170.69;;;29.48;38.41
16100;BME280;8154;50.830;12.082;2023-06-24T01:44:33;100159.72;;;29.43;38.42
16100;BME280;8154;50.830;12.082;2023-06-24T01:47:10;100166.13;;;29.48;38.45
16100;BME280;8154;50.830;12.082;2023-06-24T01:49:42;100159.06;;;29.47;38.79
16100;BME280;8154;50.830;12.082;2023-06-24T01:52:13;100149.13;;;29.48;38.55
16100;BME280;8154;50.830;12.082;2023-06-24T01:54:44;100150.78;;;29.49;38.71
16100;BME280;8154;50.830;12.082;2023-06-24T01:57:17;100152.88;;;29.47;38.67
16100;BME280;8154;50.830;12.082;2023-06-24T01:59:52;100153.09;;;29.45;38.81
16100;BME280;8154;50.830;12.082;2023-06-24T02:02:27;100154.13;;;29.44;38.86
16100;BME280;8154;50.830;12.082;2023-06-24T02:04:58;100150.63;;;29.44;38.58
16100;BME280;8154;50.830;12.082;2023-06-24T02:07:29;100151.44;;;29.44;38.58
16100;BME280;8154;50.830;12.082;2023-06-24T02:10:09;100153.31;;;29.44;38.78
16100;BME280;8154;50.830;12.082;2023-06-24T02:12:36;100154.34;;;29.43;38.48
16100;BME280;8154;50.830;12.082;2023-06-24T02:15:09;100151.06;;;29.41;38.53
16100;BME280;8154;50.830;12.082;2023-06-24T02:17:42;100154.78;;;29.40;38.63
16100;BME280;8154;50.830;12.082;2023-06-24T02:20:10;100143.78;;;29.41;38.45
16100;BME280;8154;50.830;12.082;2023-06-24T02:22:38;100150.84;;;29.42;38.51
16100;BME280;8154;50.830;12.082;2023-06-24T02:25:08;100140.50;;;29.39;38.58
16100;BME280;8154;50.830;12.082;2023-06-24T02:27:36;100142.38;;;29.39;38.45
16100;BME280;8154;50.830;12.082;2023-06-24T02:30:07;100139.66;;;29.39;38.83
16100;BME280;8154;50.830;12.082;2023-06-24T02:32:34;100138.41;;;29.41;38.66
16100;BME280;8154;50.830;12.082;2023-06-24T02:35:07;100144.00;;;29.40;38.31
16100;BME280;8154;50.830;12.082;2023-06-24T02:37:34;100132.66;;;29.38;38.51
16100;BME280;8154;50.830;12.082;2023-06-24T02:40:04;100145.28;;;29.37;38.73
16100;BME280;8154;50.830;12.082;2023-06-24T02:42:32;100138.03;;;29.38;38.32
16100;BME280;8154;50.830;12.082;2023-06-24T02:44:59;100141.75;;;29.37;38.46
16100;BME280;8154;50.830;12.082;2023-06-24T02:47:29;100149.22;;;29.35;38.38
16100;BME280;8154;50.830;12.082;2023-06-24T02:50:16;100153.56;;;29.36;38.81
16100;BME280;8154;50.830;12.082;2023-06-24T02:52:48;100153.78;;;29.34;38.48
16100;BME280;8154;50.830;12.082;2023-06-24T02:55:19;100157.91;;;29.37;38.77
16100;BME280;8154;50.830;12.082;2023-06-24T02:57:49;100153.56;;;29.36;38.76
16100;BME280;8154;50.830;12.082;2023-06-24T03:00:22;100152.94;;;29.34;38.45
16100;BME280;8154;50.830;12.082;2023-06-24T03:02:53;100165.59;;;29.33;38.71
16100;BME280;8154;50.830;12.082;2023-06-24T03:05:23;100158.56;;;29.32;38.74
16100;BME280;8154;50.830;12.082;2023-06-24T03:07:57;100163.31;;;29.30;38.48
16100;BME280;8154;50.830;12.082;2023-06-24T03:10:26;100159.00;;;29.29;38.59
16100;BME280;8154;50.830;12.082;2023-06-24T03:12:54;100160.63;;;29.30;38.82
16100;BME280;8154;50.830;12.082;2023-06-24T03:15:23;100165.22;;;29.30;38.70
16100;BME280;8154;50.830;12.082;2023-06-24T03:17:52;100171.63;;;29.29;38.58
16100;BME280;8154;50.830;12.082;2023-06-24T03:20:19;100182.38;;;29.29;38.48
16100;BME280;8154;50.830;12.082;2023-06-24T03:22:48;100171.03;;;29.27;38.61
16100;BME280;8154;50.830;12.082;2023-06-24T03:25:18;100161.34;;;29.19;38.74
16100;BME280;8154;50.830;12.082;2023-06-24T03:27:47;100174.53;;;29.27;38.81
16100;BME280;8154;50.830;12.082;2023-06-24T03:30:15;100180.97;;;29.26;38.64
16100;BME280;8154;50.830;12.082;2023-06-24T03:32:44;100196.91;;;29.28;38.66
16100;BME280;8154;50.830;12.082;2023-06-24T03:35:15;100198.59;;;29.22;38.43
16100;BME280;8154;50.830;12.082;2023-06-24T03:37:42;100202.72;;;29.25;38.80
16100;BME280;8154;50.830;12.082;2023-06-24T03:40:09;100211.25;;;29.22;38.91
16100;BME280;8154;50.830;12.082;2023-06-24T03:42:36;100212.28;;;29.21;38.57
16100;BME280;8154;50.830;12.082;2023-06-24T03:45:03;100205.66;;;29.17;38.83
16100;BME280;8154;50.830;12.082;2023-06-24T03:47:29;100206.91;;;29.21;38.88
16100;BME280;8154;50.830;12.082;2023-06-24T03:50:00;100208.34;;;29.17;38.99
16100;BME280;8154;50.830;12.082;2023-06-24T03:52:29;100212.72;;;29.18;38.81
16100;BME280;8154;50.830;12.082;2023-06-24T03:55:01;100215.19;;;29.19;38.50
16100;BME280;8154;50.830;12.082;2023-06-24T03:57:32;100221.38;;;29.20;38.86
16100;BME280;8154;50.830;12.082;2023-06-24T03:59:58;100228.66;;;29.19;38.80
16100;BME280;8154;50.830;12.082;2023-06-24T04:02:41;100237.09;;;29.23;38.40
16100;BME280;8154;50.830;12.082;2023-06-24T04:05:10;100240.41;;;29.25;38.35
16100;BME280;8154;50.830;12.082;2023-06-24T04:07:38;100236.69;;;29.26;38.42
16100;BME280;8154;50.830;12.082;2023-06-24T04:10:06;100229.44;;;29.26;38.59
16100;BME280;8154;50.830;12.082;2023-06-24T04:12:35;100226.97;;;29.25;38.52
16100;BME280;8154;50.830;12.082;2023-06-24T04:15:04;100222.63;;;29.24;38.60
16100;BME280;8154;50.830;12.082;2023-06-24T04:17:35;100220.59;;;29.19;38.78
16100;BME280;8154;50.830;12.082;2023-06-24T04:20:03;100177.19;;;28.89;38.72
16100;BME280;8154;50.830;12.082;2023-06-24T04:22:37;100231.75;;;29.16;38.95
16100;BME280;8154;50.830;12.082;2023-06-24T04:25:06;100233.00;;;29.14;38.85
16100;BME280;8154;50.830;12.082;2023-06-24T04:27:38;100232.84;;;29.02;38.96
16100;BME280;8154;50.830;12.082;2023-06-24T04:30:09;100230.19;;;28.89;39.36
16100;BME280;8154;50.830;12.082;2023-06-24T04:32:36;100233.09;;;28.87;39.40
16100;BME280;8154;50.830;12.082;2023-06-24T04:35:05;100240.97;;;28.82;39.54
16100;BME280;8154;50.830;12.082;2023-06-24T04:37:37;100229.78;;;28.79;39.29
16100;BME280;8154;50.830;12.082;2023-06-24T04:40:06;100245.13;;;28.85;39.36
16100;BME280;8154;50.830;12.082;2023-06-24T04:42:34;100244.06;;;28.86;39.58
16100;BME280;8154;50.830;12.082;2023-06-24T04:45:04;100247.97;;;28.90;39.60
16100;BME280;8154;50.830;12.082;2023-06-24T04:47:33;100249.66;;;28.91;39.32
16100;BME280;8154;50.830;12.082;2023-06-24T04:50:03;100251.50;;;28.90;39.23
16100;BME280;8154;50.830;12.082;2023-06-24T04:52:31;100249.44;;;28.92;39.51
16100;BME280;8154;50.830;12.082;2023-06-24T04:54:59;100259.16;;;28.93;39.21
16100;BME280;8154;50.830;12.082;2023-06-24T04:57:30;100252.13;;;28.92;39.39
16100;BME280;8154;50.830;12.082;2023-06-24T05:00:02;100255.25;;;28.89;39.51
16100;BME280;8154;50.830;12.082;2023-06-24T05:02:31;100263.28;;;28.96;39.19
16100;BME280;8154;50.830;12.082;2023-06-24T05:05:02;100269.28;;;28.98;39.30
16100;BME280;8154;50.830;12.082;2023-06-24T05:07:31;100278.19;;;28.99;39.43
16100;BME280;8154;50.830;12.082;2023-06-24T05:09:58;100279.03;;;28.99;39.49
16100;BME280;8154;50.830;12.082;2023-06-24T05:12:26;100287.28;;;28.98;39.44
16100;BME280;8154;50.830;12.082;2023-06-24T05:14:54;100286.25;;;28.99;39.54
16100;BME280;8154;50.830;12.082;2023-06-24T05:17:24;100287.09;;;28.99;39.64
16100;BME280;8154;50.830;12.082;2023-06-24T05:19:53;100299.50;;;29.00;39.52
16100;BME280;8154;50.830;12.082;2023-06-24T05:22:19;100291.44;;;29.00;39.34
16100;BME280;8154;50.830;12.082;2023-06-24T05:24:49;100299.50;;;29.00;39.25
16100;BME280;8154;50.830;12.082;2023-06-24T05:27:18;100291.66;;;28.99;39.44
16100;BME280;8154;50.830;12.082;2023-06-24T05:30:07;100295.97;;;29.00;39.60
16100;BME280;8154;50.830;12.082;2023-06-24T05:32:34;100302.19;;;29.00;39.52
16100;BME280;8154;50.830;12.082;2023-06-24T05:35:02;100303.03;;;29.01;39.14
16100;BME280;8154;50.830;12.082;2023-06-24T05:37:29;100294.13;;;29.00;39.61
16100;BME280;8154;50.830;12.082;2023-06-24T05:39:57;100293.06;;;29.01;39.21
16100;BME280;8154;50.830;12.082;2023-06-24T05:42:38;100290.16;;;29.03;39.24
16100;BME280;8154;50.830;12.082;2023-06-24T05:45:09;100294.16;;;29.07;39.40
16100;BME280;8154;50.830;12.082;2023-06-24T05:47:40;100294.16;;;29.07;39.46
16100;BME280;8154;50.830;12.082;2023-06-24T05:50:09;100295.78;;;29.08;39.27
16100;BME280;8154;50.830;12.082;2023-06-24T05:52:39;100294.75;;;29.09;39.02
16100;BME280;8154;50.830;12.082;2023-06-24T05:55:13;100292.25;;;29.07;39.28
16100;BME280;8154;50.830;12.082;2023-06-24T05:57:50;100293.50;;;29.11;39.00
16100;BME280;8154;50.830;12.082;2023-06-24T06:00:18;100296.41;;;29.10;39.01
16100;BME280;8154;50.830;12.082;2023-06-24T06:02:47;100297.22;;;29.10;39.28
16100;BME280;8154;50.830;12.082;2023-06-24T06:05:19;100298.69;;;29.13;39.34
16100;BME280;8154;50.830;12.082;2023-06-24T06:07:47;100294.09;;;29.13;39.19
16100;BME280;8154;50.830;12.082;2023-06-24T06:10:16;100291.19;;;29.15;38.98
16100;BME280;8154;50.830;12.082;2023-06-24T06:12:46;100297.63;;;29.14;39.26
16100;BME280;8154;50.830;12.082;2023-06-24T06:15:12;100291.41;;;29.13;39.26
16100;BME280;8154;50.830;12.082;2023-06-24T06:17:40;100284.16;;;29.14;39.05
16100;BME280;8154;50.830;12.082;2023-06-24T06:20:09;100287.91;;;29.13;39.02
16100;BME280;8154;50.830;12.082;2023-06-24T06:22:36;100284.16;;;29.14;39.13
16100;BME280;8154;50.830;12.082;2023-06-24T06:25:07;100286.22;;;29.12;39.19
16100;BME280;8154;50.830;12.082;2023-06-24T06:27:40;100279.84;;;29.13;39.19
16100;BME280;8154;50.830;12.082;2023-06-24T06:30:09;100287.91;;;29.13;38.91
16100;BME280;8154;50.830;12.082;2023-06-24T06:32:36;100287.06;;;29.12;39.19
16100;BME280;8154;50.830;12.082;2023-06-24T06:35:07;100295.16;;;29.12;38.99
16100;BME280;8154;50.830;12.082;2023-06-24T06:37:37;100300.53;;;29.12;39.22
16100;BME280;8154;50.830;12.082;2023-06-24T06:40:09;100302.59;;;29.10;39.37
16100;BME280;8154;50.830;12.082;2023-06-24T06:42:38;100304.47;;;29.10;39.35
16100;BME280;8154;50.830;12.082;2023-06-24T06:45:07;100299.09;;;29.10;39.16
16100;BME280;8154;50.830;12.082;2023-06-24T06:47:33;100299.69;;;29.12;39.41
16100;BME280;8154;50.830;12.082;2023-06-24T06:49:59;100299.47;;;29.13;39.48
16100;BME280;8154;50.830;12.082;2023-06-24T06:52:29;100305.91;;;29.12;39.44
16100;BME280;8154;50.830;12.082;2023-06-24T06:54:58;100307.78;;;29.12;39.52
16100;BME280;8154;50.830;12.082;2023-06-24T06:57:27;100302.38;;;29.12;39.16
16100;BME280;8154;50.830;12.082;2023-06-24T06:59:56;100285.22;;;29.00;39.27
16100;BME280;8154;50.830;12.082;2023-06-24T07:02:23;100304.06;;;29.13;39.27
16100;BME280;8154;50.830;12.082;2023-06-24T07:04:49;100302.19;;;29.13;39.36
16100;BME280;8154;50.830;12.082;2023-06-24T07:07:20;100302.19;;;29.13;39.39
16100;BME280;8154;50.830;12.082;2023-06-24T07:09:49;100303.84;;;29.14;39.15
16100;BME280;8154;50.830;12.082;2023-06-24T07:12:17;100307.34;;;29.15;39.10
16100;BME280;8154;50.830;12.082;2023-06-24T07:14:46;100303.00;;;29.14;39.46
16100;BME280;8154;50.830;12.082;2023-06-24T07:17:15;100305.69;;;29.14;39.49
16100;BME280;8154;50.830;12.082;2023-06-24T07:19:43;100306.53;;;29.14;39.18
16100;BME280;8154;50.830;12.082;2023-06-24T07:22:15;100303.63;;;29.16;39.50
16100;BME280;8154;50.830;12.082;2023-06-24T07:24:44;100301.16;;;29.14;39.23
16100;BME280;8154;50.830;12.082;2023-06-24T07:27:13;100304.88;;;29.13;39.22
16100;BME280;8154;50.830;12.082;2023-06-24T07:29:42;100308.41;;;29.14;39.30
16100;BME280;8154;50.830;12.082;2023-06-24T07:32:11;100318.31;;;29.13;39.30
16100;BME280;8154;50.830;12.082;2023-06-24T07:34:43;100326.19;;;29.15;39.34
16100;BME280;8154;50.830;12.082;2023-06-24T07:37:12;100317.31;;;29.14;39.36
16100;BME280;8154;50.830;12.082;2023-06-24T07:39:42;100287.09;;;28.99;39.26
16100;BME280;8154;50.830;12.082;2023-06-24T07:42:09;100310.88;;;29.15;39.46
16100;BME280;8154;50.830;12.082;2023-06-24T07:44:36;100279.84;;;29.00;39.46
16100;BME280;8154;50.830;12.082;2023-06-24T07:47:06;100303.41;;;29.17;39.70
16100;BME280;8154;50.830;12.082;2023-06-24T07:49:34;100303.22;;;29.19;39.68
16100;BME280;8154;50.830;12.082;2023-06-24T07:52:04;100307.97;;;29.17;39.58
16100;BME280;8154;50.830;12.082;2023-06-24T07:54:34;100301.75;;;29.16;39.72
16100;BME280;8154;50.830;12.082;2023-06-24T07:57:04;100309.44;;;29.19;39.48
16100;BME280;8154;50.830;12.082;2023-06-24T07:59:32;100312.94;;;29.20;39.55
16100;BME280;8154;50.830;12.082;2023-06-24T08:02:02;100313.13;;;29.18;39.68
16100;BME280;8154;50.830;12.082;2023-06-24T08:04:35;100310.03;;;29.15;39.63
16100;BME280;8154;50.830;12.082;2023-06-24T08:07:04;100306.75;;;29.13;39.69
16100;BME280;8154;50.830;12.082;2023-06-24T08:09:32;100317.72;;;29.18;39.83
16100;BME280;8154;50.830;12.082;2023-06-24T08:11:59;100309.66;;;29.18;39.97
16100;BME280;8154;50.830;12.082;2023-06-24T08:14:27;100295.56;;;29.16;39.86
16100;BME280;8154;50.830;12.082;2023-06-24T08:16:56;100306.53;;;29.21;39.78
16100;BME280;8154;50.830;12.082;2023-06-24T08:19:23;100299.28;;;29.15;39.74
16100;BME280;8154;50.830;12.082;2023-06-24T08:21:49;100310.03;;;29.21;39.72
16100;BME280;8154;50.830;12.082;2023-06-24T08:24:18;100309.22;;;29.21;39.70
16100;BME280;8154;50.830;12.082;2023-06-24T08:26:50;100306.53;;;29.21;39.99
16100;BME280;8154;50.830;12.082;2023-06-24T08:29:15;100303.41;;;29.24;39.98
16100;BME280;8154;50.830;12.082;2023-06-24T08:31:45;100303.19;;;29.25;39.94
16100;BME280;8154;50.830;12.082;2023-06-24T08:34:13;100306.69;;;29.26;40.02
16100;BME280;8154;50.830;12.082;2023-06-24T08:36:43;100296.97;;;29.25;39.76
16100;BME280;8154;50.830;12.082;2023-06-24T08:39:09;100297.81;;;29.25;40.06
16100;BME280;8154;50.830;12.082;2023-06-24T08:41:45;100304.22;;;29.24;39.78
16100;BME280;8154;50.830;12.082;2023-06-24T08:44:14;100302.34;;;29.25;40.11
16100;BME280;8154;50.830;12.082;2023-06-24T08:46:43;100293.44;;;29.24;40.16
16100;BME280;8154;50.830;12.082;2023-06-24T08:49:32;100298.59;;;29.26;40.20
16100;BME280;8154;50.830;12.082;2023-06-24T08:52:07;100293.66;;;29.23;39.81
16100;BME280;8154;50.830;12.082;2023-06-24T08:54:38;100289.94;;;29.24;40.21
16100;BME280;8154;50.830;12.082;2023-06-24T08:57:07;100296.97;;;29.25;40.23
16100;BME280;8154;50.830;12.082;2023-06-24T08:59:38;100300.28;;;29.27;39.92
16100;BME280;8154;50.830;12.082;2023-06-24T09:02:07;100296.53;;;29.28;40.25
16100;BME280;8154;50.830;12.082;2023-06-24T09:04:35;100300.06;;;29.28;40.17
16100;BME280;8154;50.830;12.082;2023-06-24T09:07:08;100295.50;;;29.29;40.13
16100;BME280;8154;50.830;12.082;2023-06-24T09:09:43;100294.25;;;29.31;39.99
16100;BME280;8154;50.830;12.082;2023-06-24T09:12:15;100292.38;;;29.32;40.20
16100;BME280;8154;50.830;12.082;2023-06-24T09:14:48;100286.97;;;29.32;39.90
16100;BME280;8154;50.830;12.082;2023-06-24T09:17:18;100292.38;;;29.32;39.99
16100;BME280;8154;50.830;12.082;2023-06-24T09:19:50;100289.88;;;29.30;39.94
16100;BME280;8154;50.830;12.082;2023-06-24T09:22:19;100288.25;;;29.29;39.92
16100;BME280;8154;50.830;12.082;2023-06-24T09:24:48;100280.38;;;29.28;40.01
16100;BME280;8154;50.830;12.082;2023-06-24T09:27:18;100279.75;;;29.32;40.27
16100;BME280;8154;50.830;12.082;2023-06-24T09:29:50;100275.19;;;29.33;39.86
16100;BME280;8154;50.830;12.082;2023-06-24T09:32:19;100278.47;;;29.35;39.95
16100;BME280;8154;50.830;12.082;2023-06-24T09:34:45;100266.91;;;29.28;40.11
16100;BME280;8154;50.830;12.082;2023-06-24T09:37:21;100284.69;;;29.35;40.17
16100;BME280;8154;50.830;12.082;2023-06-24T09:40:12;100285.53;;;29.36;40.08
16100;BME280;8154;50.830;12.082;2023-06-24T09:45:21;100278.28;;;29.36;40.31
16100;BME280;8154;50.830;12.082;2023-06-24T09:47:50;100272.06;;;29.36;40.26
16100;BME280;8154;50.830;12.082;2023-06-24T09:50:22;100277.44;;;29.36;40.05
16100;BME280;8154;50.830;12.082;2023-06-24T09:52:52;100282.84;;;29.36;40.40
16100;BME280;8154;50.830;12.082;2023-06-24T09:55:23;100279.31;;;29.35;40.24
16100;BME280;8154;50.830;12.082;2023-06-24T09:57:54;100270.22;;;29.36;40.23
16100;BME280;8154;50.830;12.082;2023-06-24T10:00:23;100264.19;;;29.34;39.91
16100;BME280;8154;50.830;12.082;2023-06-24T10:02:56;100267.09;;;29.39;40.21
16100;BME280;8154;50.830;12.082;2023-06-24T10:05:27;100269.78;;;29.39;39.99
16100;BME280;8154;50.830;12.082;2023-06-24T10:08:00;100276.19;;;29.38;39.94
16100;BME280;8154;50.830;12.082;2023-06-24T10:10:29;100268.09;;;29.38;40.23
16100;BME280;8154;50.830;12.082;2023-06-24T10:12:57;100284.66;;;29.42;40.00
16100;BME280;8154;50.830;12.082;2023-06-24T10:15:26;100284.66;;;29.42;39.96
16100;BME280;8154;50.830;12.082;2023-06-24T10:18:02;100277.44;;;29.42;39.86
16100;BME280;8154;50.830;12.082;2023-06-24T10:20:36;100244.16;;;29.24;39.75
16100;BME280;8154;50.830;12.082;2023-06-24T10:23:06;100281.34;;;29.46;39.74
16100;BME280;8154;50.830;12.082;2023-06-24T10:25:37;100279.91;;;29.44;39.95
16100;BME280;8154;50.830;12.082;2023-06-24T10:28:12;100254.84;;;29.37;39.91
16100;BME280;8154;50.830;12.082;2023-06-24T10:30:39;100274.88;;;29.47;40.09
16100;BME280;8154;50.830;12.082;2023-06-24T10:33:27;100273.88;;;29.48;40.10
16100;BME280;8154;50.830;12.082;2023-06-24T10:35:55;100268.47;;;29.48;39.72
16100;BME280;8154;50.830;12.082;2023-06-24T10:38:24;100268.69;;;29.47;39.79
16100;BME280;8154;50.830;12.082;2023-06-24T10:40:55;100275.50;;;29.49;39.98
16100;BME280;8154;50.830;12.082;2023-06-24T10:45:53;100266.16;;;29.52;39.80
16100;BME280;8154;50.830;12.082;2023-06-24T10:48:23;100259.75;;;29.53;39.61
16100;BME280;8154;50.830;12.082;2023-06-24T10:50:52;100267.63;;;29.54;39.75
16100;BME280;8154;50.830;12.082;2023-06-24T10:53:21;100256.84;;;29.54;39.60
16100;BME280;8154;50.830;12.082;2023-06-24T10:55:48;100254.97;;;29.55;39.76
16100;BME280;8154;50.830;12.082;2023-06-24T10:58:17;100249.81;;;29.53;39.97
16100;BME280;8154;50.830;12.082;2023-06-24T11:00:47;100249.81;;;29.53;39.69
16100;BME280;8154;50.830;12.082;2023-06-24T11:03:17;100248.13;;;29.52;39.91
16100;BME280;8154;50.830;12.082;2023-06-24T11:05:51;100246.28;;;29.53;39.92
16100;BME280;8154;50.830;12.082;2023-06-24T11:08:23;100239.44;;;29.50;39.53
16100;BME280;8154;50.830;12.082;2023-06-24T11:10:57;100233.84;;;29.52;39.60
16100;BME280;8154;50.830;12.082;2023-06-24T11:13:34;100241.91;;;29.52;39.95
16100;BME280;8154;50.830;12.082;2023-06-24T11:16:04;100236.53;;;29.52;39.77
16100;BME280;8154;50.830;12.082;2023-06-24T11:18:38;100234.88;;;29.51;39.55
16100;BME280;8154;50.830;12.082;2023-06-24T11:21:08;100234.06;;;29.50;39.90
16100;BME280;8154;50.830;12.082;2023-06-24T11:23:36;100231.13;;;29.52;39.53
16100;BME280;8154;50.830;12.082;2023-06-24T11:26:05;100226.81;;;29.51;39.46
16100;BME280;8154;50.830;12.082;2023-06-24T11:28:33;100225.56;;;29.53;39.83
16100;BME280;8154;50.830;12.082;2023-06-24T11:31:08;100216.25;;;29.49;39.53
16100;BME280;8154;50.830;12.082;2023-06-24T11:33:35;100218.50;;;29.52;39.48
16100;BME280;8154;50.830;12.082;2023-06-24T11:36:09;100223.28;;;29.50;39.60
16100;BME280;8154;50.830;12.082;2023-06-24T11:38:37;100220.38;;;29.52;39.89
16100;BME280;8154;50.830;12.082;2023-06-24T11:41:06;100214.19;;;29.51;39.82
16100;BME280;8154;50.830;12.082;2023-06-24T11:43:37;100217.69;;;29.52;39.84
16100;BME280;8154;50.830;12.082;2023-06-24T11:46:06;100212.28;;;29.52;39.87
16100;BME280;8154;50.830;12.082;2023-06-24T11:48:39;100207.13;;;29.50;39.45
16100;BME280;8154;50.830;12.082;2023-06-24T11:51:14;100211.69;;;29.50;39.86
16100;BME280;8154;50.830;12.082;2023-06-24T11:53:44;100203.19;;;29.53;39.42
16100;BME280;8154;50.830;12.082;2023-06-24T11:56:17;100212.09;;;29.53;39.41
16100;BME280;8154;50.830;12.082;2023-06-24T11:58:48;100211.88;;;29.55;39.41
16100;BME280;8154;50.830;12.082;2023-06-24T12:01:21;100209.59;;;29.52;39.44
16100;BME280;8154;50.830;12.082;2023-06-24T12:03:49;100207.94;;;29.51;39.51
16100;BME280;8154;50.830;12.082;2023-06-24T12:06:18;100217.09;;;29.50;39.76
16100;BME280;8154;50.830;12.082;2023-06-24T12:08:48;100214.19;;;29.51;39.50
16100;BME280;8154;50.830;12.082;2023-06-24T12:11:19;100203.44;;;29.45;39.70
16100;BME280;8154;50.830;12.082;2023-06-24T12:13:49;100202.56;;;29.51;39.40
16100;BME280;8154;50.830;12.082;2023-06-24T12:16:18;100201.16;;;29.48;39.50
16100;BME280;8154;50.830;12.082;2023-06-24T12:18:47;100198.22;;;29.50;39.69
16100;BME280;8154;50.830;12.082;2023-06-24T12:21:15;100191.78;;;29.51;39.76
16100;BME280;8154;50.830;12.082;2023-06-24T12:23:44;100190.16;;;29.50;39.78
16100;BME280;8154;50.830;12.082;2023-06-24T12:26:13;100156.69;;;29.33;39.36
16100;BME280;8154;50.830;12.082;2023-06-24T12:28:41;100182.88;;;29.50;39.29
16100;BME280;8154;50.830;12.082;2023-06-24T12:31:09;100189.72;;;29.53;39.36
16100;BME280;8154;50.830;12.082;2023-06-24T12:33:41;100188.03;;;29.52;39.81
16100;BME280;8154;50.830;12.082;2023-06-24T12:36:08;100196.34;;;29.50;39.43
16100;BME280;8154;50.830;12.082;2023-06-24T12:38:37;100189.09;;;29.51;39.69
16100;BME280;8154;50.830;12.082;2023-06-24T12:41:07;100187.69;;;29.48;39.57
16100;BME280;8154;50.830;12.082;2023-06-24T12:43:34;100182.28;;;29.48;39.49
16100;BME280;8154;50.830;12.082;2023-06-24T12:46:05;100192.22;;;29.48;39.49
16100;BME280;8154;50.830;12.082;2023-06-24T12:48:33;100188.34;;;29.44;39.74
16100;BME280;8154;50.830;12.082;2023-06-24T12:51:07;100186.84;;;29.48;39.72
16100;BME280;8154;50.830;12.082;2023-06-24T12:53:33;100182.28;;;29.48;39.35
16100;BME280;8154;50.830;12.082;2023-06-24T12:56:02;100182.88;;;29.50;39.34
16100;BME280;8154;50.830;12.082;2023-06-24T12:58:29;100177.69;;;29.49;39.60
16100;BME280;8154;50.830;12.082;2023-06-24T13:01:01;100175.00;;;29.49;39.74
16100;BME280;8154;50.830;12.082;2023-06-24T13:03:29;100169.41;;;29.50;39.70
16100;BME280;8154;50.830;12.082;2023-06-24T13:05:58;100173.78;;;29.51;39.60
16100;BME280;8154;50.830;12.082;2023-06-24T13:08:32;100172.75;;;29.46;39.70
16100;BME280;8154;50.830;12.082;2023-06-24T13:11:00;100181.03;;;29.51;39.63
16100;BME280;8154;50.830;12.082;2023-06-24T13:13:28;100171.88;;;29.52;39.24
16100;BME280;8154;50.830;12.082;2023-06-24T13:15:57;100178.09;;;29.52;39.55
16100;BME280;8154;50.830;12.082;2023-06-24T13:18:26;100168.16;;;29.53;39.50
16100;BME280;8154;50.830;12.082;2023-06-24T13:20:53;100173.56;;;29.53;39.37